Time;durP1;ratioP1;P1;durP2;ratioP2;P2;SDS_P1;SDS_P2;PMS_P1;PMS_P2;Temp;Humidity;BMP_temperature;BMP_pressure;BME280_temperature;BME280_humidity;BME280_pressure;Samples;Min_cycle;Max_cycle;Signal;HPM_P1;HPM_P2
2021/01/21 00:00:11;;;;;;;16.00;8.33;;;2.90;99.90;;;;;;5052563;28;20188;-66
2021/01/21 00:02:37;;;;;;;15.77;8.17;;;2.90;99.90;;;;;;5052241;28;20238;-67
2021/01/21 00:05:04;;;;;;;15.60;8.23;;;2.90;99.90;;;;;;5052991;28;20292;-66
2021/01/21 00:07:31;;;;;;;15.17;8.30;;;2.90;99.90;;;;;;5052586;28;20236;-66
2021/01/21 00:09:58;;;;;;;26.10;8.93;;;2.90;99.90;;;;;;5053121;28;20234;-65
2021/01/21 00:12:25;;;;;;;17.63;7.90;;;2.90;99.90;;;;;;5053036;28;20199;-67
2021/01/21 00:14:52;;;;;;;49.27;8.77;;;3.00;99.90;;;;;;5053209;28;20226;-66
2021/01/21 00:17:18;;;;;;;54.87;8.57;;;3.00;99.90;;;;;;5052689;28;20254;-67
2021/01/21 00:19:45;;;;;;;27.23;8.27;;;2.90;99.90;;;;;;5052245;28;20653;-67
2021/01/21 00:22:11;;;;;;;20.30;7.97;;;2.90;99.90;;;;;;5052293;28;20275;-66
2021/01/21 00:24:38;;;;;;;28.83;7.93;;;2.90;99.90;;;;;;5052780;28;20243;-66
2021/01/21 00:27:04;;;;;;;15.10;7.73;;;2.90;99.90;;;;;;5052031;28;20219;-66
2021/01/21 00:29:31;;;;;;;16.93;8.13;;;3.00;99.90;;;;;;5051998;28;20270;-65
2021/01/21 00:31:59;;;;;;;47.97;8.20;;;3.00;99.90;;;;;;5052892;28;20196;-65
2021/01/21 00:34:26;;;;;;;29.67;7.83;;;3.00;99.90;;;;;;5052181;28;20219;-66
2021/01/21 00:36:52;;;;;;;19.73;7.07;;;3.00;99.90;;;;;;5051346;28;20632;-65
2021/01/21 00:39:18;;;;;;;58.93;8.80;;;3.00;99.90;;;;;;5052396;28;20199;-66
2021/01/21 00:41:45;;;;;;;18.67;7.03;;;3.00;99.90;;;;;;5052135;28;20227;-66
2021/01/21 00:44:12;;;;;;;22.23;7.23;;;2.90;99.90;;;;;;5052340;28;20215;-67
2021/01/21 00:46:38;;;;;;;44.47;8.10;;;2.90;99.90;;;;;;5051967;28;20291;-66
2021/01/21 00:49:05;;;;;;;168.33;10.43;;;2.90;99.90;;;;;;5052333;28;20192;-65
2021/01/21 00:51:32;;;;;;;26.63;7.10;;;2.80;99.90;;;;;;5051085;28;20227;-66
2021/01/21 00:53:59;;;;;;;41.70;7.30;;;2.90;99.90;;;;;;5052445;28;20206;-64
2021/01/21 00:56:25;;;;;;;33.73;7.10;;;2.90;99.90;;;;;;5051682;28;20714;-66
2021/01/21 00:58:52;;;;;;;52.53;6.93;;;2.90;99.90;;;;;;5051342;28;20195;-65
2021/01/21 01:01:18;;;;;;;36.17;6.50;;;2.90;99.90;;;;;;5051839;28;20191;-64
2021/01/21 01:03:45;;;;;;;45.53;7.57;;;3.00;99.90;;;;;;5051842;28;20267;-65
2021/01/21 01:06:13;;;;;;;38.50;6.93;;;3.00;99.90;;;;;;5051536;28;20278;-64
2021/01/21 01:08:39;;;;;;;22.10;6.73;;;3.00;99.90;;;;;;5051372;28;20196;-65
2021/01/21 01:11:06;;;;;;;98.70;9.03;;;3.00;99.90;;;;;;5052025;28;20201;-65
2021/01/21 01:13:32;;;;;;;115.80;8.67;;;3.00;99.90;;;;;;5051900;28;20219;-66
2021/01/21 01:15:59;;;;;;;66.67;8.10;;;3.00;99.90;;;;;;5051590;28;20239;-65
2021/01/21 01:18:25;;;;;;;247.37;12.23;;;3.00;99.90;;;;;;5050963;28;20739;-67
2021/01/21 01:20:52;;;;;;;58.33;6.93;;;3.00;99.90;;;;;;5050663;28;20192;-67
2021/01/21 01:23:19;;;;;;;19.47;5.60;;;3.00;99.90;;;;;;5051406;28;20211;-67
2021/01/21 01:25:46;;;;;;;22.73;6.07;;;3.00;99.90;;;;;;5051421;28;20231;-65
2021/01/21 01:28:12;;;;;;;29.13;6.67;;;3.00;99.90;;;;;;5051529;28;20220;-65
2021/01/21 01:30:38;;;;;;;22.00;6.70;;;3.00;99.90;;;;;;5051033;28;20238;-66
2021/01/21 01:33:05;;;;;;;16.87;6.13;;;3.00;99.90;;;;;;5050944;28;20195;-66
2021/01/21 01:35:31;;;;;;;17.37;6.60;;;3.10;99.90;;;;;;5051370;28;20269;-65
2021/01/21 01:37:58;;;;;;;14.40;6.30;;;3.00;99.90;;;;;;5050719;28;20247;-66
2021/01/21 01:40:25;;;;;;;15.63;6.40;;;3.10;99.90;;;;;;5051596;28;20208;-64
2021/01/21 01:42:52;;;;;;;14.30;5.57;;;3.00;99.90;;;;;;5051209;28;20624;-65
2021/01/21 01:45:18;;;;;;;14.87;6.07;;;3.10;99.90;;;;;;5051394;28;20668;-66
2021/01/21 01:47:45;;;;;;;13.47;5.70;;;3.10;99.90;;;;;;5051389;28;20230;-66
2021/01/21 01:50:14;;;;;;;15.27;6.53;;;3.10;99.90;;;;;;5050903;28;20645;-65
2021/01/21 01:52:44;;;;;;;14.00;6.00;;;3.10;99.90;;;;;;5050916;28;20195;-66
2021/01/21 01:55:12;;;;;;;11.83;5.93;;;3.10;99.90;;;;;;5051617;28;20183;-65
2021/01/21 01:57:40;;;;;;;14.57;6.13;;;3.10;99.90;;;;;;5050423;28;20251;-66
2021/01/21 02:00:08;;;;;;;13.37;6.30;;;3.00;99.90;;;;;;5051440;28;20227;-67
2021/01/21 02:02:34;;;;;;;12.40;6.13;;;3.00;99.90;;;;;;5051082;28;20294;-65
2021/01/21 02:05:02;;;;;;;12.93;6.40;;;3.00;99.90;;;;;;5051031;28;20184;-65
2021/01/21 02:07:28;;;;;;;13.50;6.13;;;3.10;99.90;;;;;;5051401;28;20257;-67
2021/01/21 02:09:57;;;;;;;12.17;6.37;;;3.00;99.90;;;;;;5050954;28;20234;-65
2021/01/21 02:12:36;;;;;;;10.70;5.80;;;3.10;99.90;;;;;;5050873;28;20203;-65
2021/01/21 02:15:08;;;;;;;13.27;6.53;;;3.10;99.90;;;;;;5051334;28;20219;-65
2021/01/21 02:17:39;;;;;;;14.17;6.37;;;3.20;99.90;;;;;;5050241;28;20227;-64
2021/01/21 02:20:57;;;;;;;10.93;6.50;;;3.20;99.90;;;;;;5050904;28;20215;-67
2021/01/21 02:23:56;;;;;;;12.30;6.23;;;3.20;99.90;;;;;;5050860;28;20188;-66
2021/01/21 02:26:27;;;;;;;10.37;6.17;;;3.30;99.90;;;;;;5038875;28;20637;-65
2021/01/21 02:29:09;;;;;;;11.33;6.10;;;3.20;99.90;;;;;;5050828;28;20292;-66
2021/01/21 02:32:11;;;;;;;10.07;5.83;;;3.30;99.90;;;;;;5050521;28;20514;-66
2021/01/21 02:34:43;;;;;;;13.87;5.90;;;3.30;99.90;;;;;;5039397;28;20196;-66
2021/01/21 02:37:14;;;;;;;10.73;6.07;;;3.30;99.90;;;;;;5050878;28;20247;-65
2021/01/21 02:39:47;;;;;;;11.50;6.03;;;3.30;99.90;;;;;;5050659;28;20180;-65
2021/01/21 02:42:14;;;;;;;9.23;5.60;;;3.30;99.90;;;;;;5051213;28;20591;-65
2021/01/21 02:44:40;;;;;;;8.97;5.43;;;3.30;99.90;;;;;;5051214;28;20634;-63
2021/01/21 02:47:07;;;;;;;10.03;5.93;;;3.40;99.90;;;;;;5051002;28;20293;-64
2021/01/21 02:49:34;;;;;;;9.63;5.90;;;3.40;99.90;;;;;;5050010;28;20253;-66
2021/01/21 02:52:12;;;;;;;9.50;6.03;;;3.40;99.90;;;;;;5050916;28;20249;-64
2021/01/21 02:54:47;;;;;;;8.03;5.70;;;3.40;99.90;;;;;;5050796;28;20245;-65
2021/01/21 02:57:22;;;;;;;7.73;5.60;;;3.40;99.90;;;;;;5050546;28;20327;-65
2021/01/21 02:59:49;;;;;;;8.60;5.40;;;3.40;99.90;;;;;;5051881;28;20207;-64
2021/01/21 03:02:18;;;;;;;8.70;5.73;;;3.40;99.90;;;;;;5054475;28;20263;-65
2021/01/21 03:04:45;;;;;;;8.53;5.40;;;3.40;99.90;;;;;;5054390;28;20255;-68
2021/01/21 03:07:15;;;;;;;8.67;5.60;;;3.50;99.90;;;;;;5054282;28;20204;-64
2021/01/21 03:09:43;;;;;;;8.77;5.40;;;3.40;99.90;;;;;;5053810;28;20203;-64
2021/01/21 03:12:24;;;;;;;9.40;5.23;;;3.50;99.90;;;;;;5054076;28;20264;-64
2021/01/21 03:14:52;;;;;;;8.37;5.13;;;3.50;99.90;;;;;;5053809;28;20249;-64
2021/01/21 03:17:20;;;;;;;8.23;5.07;;;3.50;99.90;;;;;;5053880;28;20224;-65
2021/01/21 03:19:46;;;;;;;8.37;5.00;;;3.50;99.90;;;;;;5053751;28;20226;-66
2021/01/21 03:22:14;;;;;;;8.30;5.23;;;3.50;99.90;;;;;;5053438;28;20223;-65
2021/01/21 03:24:40;;;;;;;8.93;4.93;;;3.50;99.90;;;;;;5053979;28;20577;-65
2021/01/21 03:27:07;;;;;;;8.63;5.27;;;3.50;99.90;;;;;;5052999;28;20235;-67
2021/01/21 03:29:33;;;;;;;6.73;4.60;;;3.60;99.90;;;;;;5053523;28;20235;-66
2021/01/21 03:32:00;;;;;;;7.70;5.03;;;3.60;99.90;;;;;;5053414;28;20239;-66
2021/01/21 03:34:26;;;;;;;8.07;5.40;;;3.60;99.90;;;;;;5053667;28;20187;-65
2021/01/21 03:36:53;;;;;;;8.47;5.07;;;3.60;99.90;;;;;;5053407;28;20279;-66
2021/01/21 03:39:20;;;;;;;8.23;5.10;;;3.60;99.90;;;;;;5053246;28;20191;-65
2021/01/21 03:41:50;;;;;;;6.43;4.70;;;3.60;99.90;;;;;;5053021;28;20630;-65
2021/01/21 03:44:16;;;;;;;6.87;4.63;;;3.60;99.90;;;;;;5053214;28;20343;-65
2021/01/21 03:46:43;;;;;;;7.73;4.73;;;3.60;99.90;;;;;;5053349;28;20214;-65
2021/01/21 03:49:09;;;;;;;8.40;4.87;;;3.60;99.90;;;;;;5052916;28;20226;-66
2021/01/21 03:51:36;;;;;;;6.40;4.53;;;3.60;99.90;;;;;;5052985;28;20209;-64
2021/01/21 03:54:03;;;;;;;6.57;4.70;;;3.60;99.90;;;;;;5053038;28;20180;-64
2021/01/21 03:56:30;;;;;;;6.60;4.53;;;3.60;99.90;;;;;;5052860;28;20684;-65
2021/01/21 03:58:56;;;;;;;5.20;3.93;;;3.60;99.90;;;;;;5053036;28;20269;-65
2021/01/21 04:01:23;;;;;;;8.13;4.73;;;3.60;99.90;;;;;;5053109;28;20719;-66
2021/01/21 04:03:50;;;;;;;7.20;4.53;;;3.60;99.90;;;;;;5052623;28;20224;-66
2021/01/21 04:06:16;;;;;;;6.53;4.53;;;3.60;99.90;;;;;;5052840;28;20199;-66
2021/01/21 04:08:43;;;;;;;7.00;4.77;;;3.60;99.90;;;;;;5052861;28;20210;-65
2021/01/21 04:11:09;;;;;;;5.87;4.30;;;3.60;99.90;;;;;;5052473;28;20227;-65
2021/01/21 04:13:37;;;;;;;8.10;4.80;;;3.60;99.90;;;;;;5052683;28;20242;-65
2021/01/21 04:16:04;;;;;;;7.93;4.67;;;3.60;99.90;;;;;;5052719;28;20700;-64
2021/01/21 04:18:30;;;;;;;7.93;4.73;;;3.60;99.90;;;;;;5053110;28;20306;-65
2021/01/21 04:20:57;;;;;;;7.23;5.03;;;3.60;99.90;;;;;;5052303;28;20203;-63
2021/01/21 04:23:23;;;;;;;6.30;4.67;;;3.60;99.90;;;;;;5052478;28;20586;-64
2021/01/21 04:25:50;;;;;;;6.83;4.70;;;3.60;99.90;;;;;;5052153;28;20227;-65
2021/01/21 04:28:16;;;;;;;8.10;5.23;;;3.70;99.90;;;;;;5052525;28;20248;-64
2021/01/21 04:30:44;;;;;;;6.10;4.47;;;3.70;99.90;;;;;;5052148;28;20231;-66
2021/01/21 04:33:10;;;;;;;6.37;4.27;;;3.70;99.90;;;;;;5052320;28;20277;-65
2021/01/21 04:35:36;;;;;;;7.87;5.20;;;3.70;99.90;;;;;;5051990;28;20192;-64
2021/01/21 04:38:03;;;;;;;7.50;5.20;;;3.70;99.90;;;;;;5051867;28;20254;-64
2021/01/21 04:40:29;;;;;;;6.87;5.00;;;3.70;99.90;;;;;;5052118;28;20661;-65
2021/01/21 04:42:56;;;;;;;5.13;4.03;;;3.70;99.90;;;;;;5052398;28;20254;-65
2021/01/21 04:45:22;;;;;;;6.47;4.70;;;3.70;99.90;;;;;;5052225;28;20224;-66
2021/01/21 04:47:50;;;;;;;6.57;4.90;;;3.70;99.90;;;;;;5052233;28;20267;-66
2021/01/21 04:50:18;;;;;;;6.43;4.47;;;3.70;99.90;;;;;;5051973;28;20255;-66
2021/01/21 04:52:46;;;;;;;5.77;4.30;;;3.70;99.90;;;;;;5051894;28;20657;-64
2021/01/21 04:55:17;;;;;;;8.47;5.17;;;3.70;99.90;;;;;;5052026;28;20198;-65
2021/01/21 04:57:48;;;;;;;6.43;4.80;;;3.70;99.90;;;;;;5051812;28;20623;-66
2021/01/21 05:00:16;;;;;;;7.07;5.00;;;3.70;99.90;;;;;;5051161;28;20219;-65
2021/01/21 05:02:45;;;;;;;8.07;4.93;;;3.70;99.90;;;;;;5052144;28;20675;-64
2021/01/21 05:05:12;;;;;;;7.40;5.27;;;3.80;99.90;;;;;;5052289;28;20219;-63
2021/01/21 05:07:39;;;;;;;7.83;5.37;;;3.70;99.90;;;;;;5051709;28;20341;-64
2021/01/21 05:10:07;;;;;;;7.23;5.50;;;3.70;99.90;;;;;;5052034;28;20633;-65
2021/01/21 05:12:34;;;;;;;8.30;5.33;;;3.70;99.90;;;;;;5052263;28;20254;-64
2021/01/21 05:15:01;;;;;;;8.07;5.17;;;3.70;99.90;;;;;;5052179;28;20271;-64
2021/01/21 05:17:28;;;;;;;7.00;5.67;;;3.80;99.90;;;;;;5052176;28;20265;-63
2021/01/21 05:19:55;;;;;;;7.27;5.70;;;3.80;99.90;;;;;;5051542;28;20192;-65
2021/01/21 05:22:22;;;;;;;7.77;5.00;;;3.80;99.90;;;;;;5051562;28;20248;-66
2021/01/21 05:24:49;;;;;;;9.43;5.57;;;3.80;99.90;;;;;;5051145;28;20191;-66
2021/01/21 05:27:17;;;;;;;6.50;5.27;;;3.80;99.90;;;;;;5051163;28;20615;-66
2021/01/21 05:29:45;;;;;;;7.70;5.07;;;3.90;99.90;;;;;;5051638;28;20235;-65
2021/01/21 05:32:13;;;;;;;7.10;5.40;;;3.80;99.90;;;;;;5051237;28;20230;-67
2021/01/21 05:34:40;;;;;;;9.17;5.83;;;3.90;99.90;;;;;;5051223;28;20188;-67
2021/01/21 05:37:10;;;;;;;8.77;5.70;;;3.90;99.90;;;;;;5051583;28;20288;-66
2021/01/21 05:39:38;;;;;;;7.00;5.53;;;3.90;99.90;;;;;;5051280;28;20289;-65
2021/01/21 05:42:06;;;;;;;9.63;5.60;;;3.90;99.90;;;;;;5051645;28;20295;-66
2021/01/21 05:44:33;;;;;;;8.80;6.03;;;3.90;99.90;;;;;;5051594;28;20223;-67
2021/01/21 05:47:02;;;;;;;14.63;6.37;;;3.90;99.90;;;;;;5051536;28;20216;-66
2021/01/21 05:49:28;;;;;;;9.43;5.90;;;4.00;99.90;;;;;;5051208;28;20191;-65
2021/01/21 05:51:56;;;;;;;11.10;6.10;;;3.90;99.90;;;;;;5052189;28;20227;-65
2021/01/21 05:54:24;;;;;;;12.17;7.00;;;4.00;99.90;;;;;;5050944;28;20184;-65
2021/01/21 05:56:53;;;;;;;10.50;6.37;;;4.00;99.90;;;;;;5051922;28;20261;-66
2021/01/21 05:59:20;;;;;;;10.20;6.83;;;4.00;99.90;;;;;;5051260;28;20192;-66
2021/01/21 06:01:48;;;;;;;9.00;6.37;;;4.00;99.90;;;;;;5051208;28;20206;-65
2021/01/21 06:04:15;;;;;;;10.80;7.13;;;4.00;99.90;;;;;;5041451;28;20601;-66
2021/01/21 06:06:42;;;;;;;14.43;7.33;;;4.10;99.90;;;;;;5051386;28;20629;-67
2021/01/21 06:09:15;;;;;;;11.27;6.57;;;4.00;99.90;;;;;;5051018;28;20192;-66
2021/01/21 06:11:42;;;;;;;9.80;6.97;;;4.00;99.90;;;;;;5051006;28;20313;-66
2021/01/21 06:14:11;;;;;;;12.83;8.53;;;4.10;99.90;;;;;;5050743;28;20196;-65
2021/01/21 06:16:39;;;;;;;15.83;8.30;;;4.10;99.90;;;;;;5051329;28;20227;-67
2021/01/21 06:19:05;;;;;;;13.40;8.50;;;4.10;99.90;;;;;;5051329;28;20223;-66
2021/01/21 06:21:35;;;;;;;13.83;8.90;;;4.10;99.90;;;;;;5051610;28;20199;-65
2021/01/21 06:24:04;;;;;;;13.40;8.87;;;4.10;99.90;;;;;;5053019;28;20188;-68
2021/01/21 06:26:41;;;;;;;16.83;9.67;;;4.10;99.90;;;;;;5051882;28;20191;-65
2021/01/21 06:29:14;;;;;;;16.57;9.53;;;4.10;99.90;;;;;;5051295;28;20192;-67
2021/01/21 06:31:42;;;;;;;13.63;8.87;;;4.10;99.90;;;;;;5051752;28;20380;-65
2021/01/21 06:34:11;;;;;;;19.40;10.67;;;4.10;99.90;;;;;;5051163;28;20191;-66
2021/01/21 06:36:43;;;;;;;17.03;10.63;;;4.10;99.90;;;;;;5055204;28;20258;-68
2021/01/21 06:39:13;;;;;;;23.03;12.03;;;4.10;99.90;;;;;;5055507;28;20334;-68
2021/01/21 06:41:44;;;;;;;21.73;11.80;;;4.10;99.90;;;;;;5054979;28;20179;-67
2021/01/21 06:44:15;;;;;;;24.93;12.97;;;4.10;99.90;;;;;;5054952;28;20175;-66
2021/01/21 06:46:44;;;;;;;27.80;13.73;;;4.20;99.90;;;;;;5055092;28;20207;-66
2021/01/21 06:49:13;;;;;;;25.47;13.17;;;4.20;99.90;;;;;;5054513;28;20196;-65
2021/01/21 06:51:44;;;;;;;25.53;13.43;;;4.20;99.90;;;;;;5055949;28;20199;-67
2021/01/21 06:54:12;;;;;;;25.27;14.33;;;4.10;99.90;;;;;;5054036;28;20680;-67
2021/01/21 06:56:38;;;;;;;29.03;15.13;;;4.10;99.90;;;;;;5054825;28;20555;-65
2021/01/21 06:59:05;;;;;;;35.50;15.80;;;4.10;99.90;;;;;;5054738;28;20222;-68
2021/01/21 07:01:49;;;;;;;34.13;16.93;;;4.20;99.90;;;;;;5053970;28;20604;-66
2021/01/21 07:04:21;;;;;;;32.70;15.47;;;4.10;99.90;;;;;;5053792;28;20250;-67
2021/01/21 07:07:06;;;;;;;38.53;17.80;;;4.20;99.90;;;;;;5054333;28;20202;-66
2021/01/21 07:09:36;;;;;;;40.07;18.50;;;4.20;99.90;;;;;;5054297;28;20187;-65
2021/01/21 07:12:04;;;;;;;39.43;18.67;;;4.10;99.90;;;;;;5054059;28;20199;-65
2021/01/21 07:14:32;;;;;;;37.47;17.53;;;4.10;99.90;;;;;;5052242;28;20280;-66
2021/01/21 07:17:01;;;;;;;43.20;19.17;;;4.20;99.90;;;;;;5052724;28;20227;-66
2021/01/21 07:19:29;;;;;;;44.20;19.60;;;4.20;99.90;;;;;;5053130;28;20202;-66
2021/01/21 07:21:57;;;;;;;44.57;20.60;;;4.20;99.90;;;;;;5054061;28;20286;-66
2021/01/21 07:24:23;;;;;;;48.10;21.73;;;4.20;99.90;;;;;;5054070;28;20234;-67
2021/01/21 07:26:51;;;;;;;43.07;19.40;;;4.20;99.90;;;;;;5054270;28;20500;-67
2021/01/21 07:29:19;;;;;;;50.37;21.30;;;4.20;99.90;;;;;;5054351;28;20256;-66
2021/01/21 07:32:06;;;;;;;50.87;20.67;;;4.20;99.90;;;;;;5053663;28;20195;-64
2021/01/21 07:34:44;;;;;;;53.77;22.93;;;4.20;99.90;;;;;;5054140;28;20218;-65
2021/01/21 07:37:12;;;;;;;57.33;23.73;;;4.20;99.90;;;;;;5053777;28;20198;-64
2021/01/21 07:39:50;;;;;;;51.67;22.10;;;4.20;99.90;;;;;;5053624;28;20223;-64
2021/01/21 07:42:17;;;;;;;53.90;24.30;;;4.20;99.90;;;;;;5053663;28;20372;-67
2021/01/21 07:44:58;;;;;;;57.93;24.13;;;4.20;99.90;;;;;;5053912;28;20657;-67
2021/01/21 07:47:26;;;;;;;52.37;23.13;;;4.20;99.90;;;;;;5053314;28;20632;-65
2021/01/21 07:50:42;;;;;;;54.03;22.93;;;4.20;99.90;;;;;;5053147;28;20187;-65
2021/01/21 07:53:23;;;;;;;56.17;23.60;;;4.30;99.90;;;;;;5053738;28;20215;-65
2021/01/21 07:55:50;;;;;;;55.77;23.07;;;4.20;99.90;;;;;;5053439;28;20696;-65
2021/01/21 07:58:18;;;;;;;47.83;22.73;;;4.20;99.90;;;;;;5053311;28;20227;-66
2021/01/21 08:00:46;;;;;;;46.77;21.53;;;4.20;99.90;;;;;;5053588;28;20192;-64
2021/01/21 08:03:14;;;;;;;43.60;21.77;;;4.30;99.90;;;;;;5053314;28;20302;-65
2021/01/21 08:05:40;;;;;;;53.80;22.87;;;4.30;99.90;;;;;;5053869;28;20614;-66
2021/01/21 08:08:07;;;;;;;49.00;22.83;;;4.30;99.90;;;;;;5053853;28;20195;-66
2021/01/21 08:10:35;;;;;;;50.83;23.67;;;4.30;99.90;;;;;;5053242;28;20226;-65
2021/01/21 08:13:03;;;;;;;41.07;20.17;;;4.30;99.90;;;;;;5053576;28;20189;-67
2021/01/21 08:15:31;;;;;;;36.70;19.57;;;4.40;99.90;;;;;;5054003;28;20650;-66
2021/01/21 08:17:58;;;;;;;41.90;19.80;;;4.40;99.90;;;;;;5052593;28;20254;-65
2021/01/21 08:20:26;;;;;;;40.47;21.13;;;4.40;99.90;;;;;;5053339;28;20672;-64
2021/01/21 08:22:58;;;;;;;34.43;18.73;;;4.40;99.90;;;;;;5053344;28;20235;-65
2021/01/21 08:25:26;;;;;;;40.73;19.47;;;4.40;99.90;;;;;;5053311;28;20270;-66
2021/01/21 08:27:53;;;;;;;38.43;19.03;;;4.40;99.90;;;;;;5053108;28;20207;-64
2021/01/21 08:30:24;;;;;;;31.77;18.37;;;4.40;99.90;;;;;;5053084;28;20227;-66
2021/01/21 08:33:02;;;;;;;37.30;18.77;;;4.40;99.90;;;;;;5053705;28;20192;-64
2021/01/21 08:35:33;;;;;;;34.67;18.03;;;4.40;99.90;;;;;;5053547;28;20242;-67
2021/01/21 08:38:01;;;;;;;33.50;17.77;;;4.50;99.90;;;;;;5052996;28;20218;-64
2021/01/21 08:40:28;;;;;;;32.47;17.60;;;4.50;99.90;;;;;;5053443;28;20200;-66
2021/01/21 08:42:56;;;;;;;31.97;17.00;;;4.50;99.90;;;;;;5053141;28;20199;-65
2021/01/21 08:45:28;;;;;;;33.00;18.43;;;4.50;99.90;;;;;;5052641;28;20184;-65
2021/01/21 08:47:54;;;;;;;29.03;15.93;;;4.50;99.90;;;;;;5053231;28;20609;-65
2021/01/21 08:50:21;;;;;;;24.40;14.40;;;4.50;99.90;;;;;;5053160;28;20227;-66
2021/01/21 08:52:59;;;;;;;28.60;15.43;;;4.50;99.90;;;;;;5052596;28;20254;-64
2021/01/21 08:55:42;;;;;;;27.07;14.60;;;4.50;99.90;;;;;;5052612;28;20294;-64
2021/01/21 08:58:11;;;;;;;25.43;14.37;;;4.50;99.90;;;;;;5051342;28;20657;-66
2021/01/21 09:00:39;;;;;;;26.77;14.20;;;4.60;99.90;;;;;;5052660;28;20199;-66
2021/01/21 09:03:06;;;;;;;26.33;14.93;;;4.60;99.90;;;;;;5052235;28;20265;-66
2021/01/21 09:05:33;;;;;;;25.97;14.53;;;4.60;99.90;;;;;;5053089;28;20191;-67
2021/01/21 09:08:08;;;;;;;24.07;13.20;;;4.60;99.90;;;;;;5052238;28;20234;-66
2021/01/21 09:10:39;;;;;;;22.23;12.57;;;4.60;99.90;;;;;;5052192;28;20189;-64
2021/01/21 09:13:06;;;;;;;24.10;13.60;;;4.60;99.90;;;;;;5052998;28;20198;-64
2021/01/21 09:15:58;;;;;;;23.57;13.13;;;4.70;99.90;;;;;;5052152;28;20234;-67
2021/01/21 09:18:26;;;;;;;23.07;12.47;;;4.70;99.90;;;;;;5052616;28;20227;-65
2021/01/21 09:21:12;;;;;;;21.87;12.83;;;4.70;99.90;;;;;;5052621;28;20202;-63
2021/01/21 09:23:40;;;;;;;21.70;12.17;;;4.70;99.90;;;;;;5052704;28;20179;-65
2021/01/21 09:26:11;;;;;;;20.83;12.73;;;4.70;99.90;;;;;;5052188;28;20231;-65
2021/01/21 09:28:52;;;;;;;24.17;13.03;;;4.70;99.90;;;;;;5052157;28;20200;-66
2021/01/21 09:31:21;;;;;;;18.37;12.27;;;4.70;99.90;;;;;;5052055;28;20215;-65
2021/01/21 09:33:49;;;;;;;18.07;11.87;;;4.70;99.90;;;;;;5052004;28;20587;-65
2021/01/21 09:36:15;;;;;;;20.27;11.87;;;4.70;99.90;;;;;;5052497;28;20206;-66
2021/01/21 09:38:43;;;;;;;22.83;12.07;;;4.70;99.90;;;;;;5052623;28;20241;-67
2021/01/21 09:41:10;;;;;;;20.10;12.37;;;4.70;99.90;;;;;;5053172;28;20210;-66
2021/01/21 09:43:36;;;;;;;18.73;11.63;;;4.70;99.90;;;;;;5052542;28;20215;-66
2021/01/21 09:46:03;;;;;;;20.63;12.43;;;4.70;99.90;;;;;;5051967;28;20238;-65
2021/01/21 09:48:29;;;;;;;19.93;12.57;;;4.70;99.90;;;;;;5052317;28;20231;-65
2021/01/21 09:50:56;;;;;;;24.67;12.70;;;4.70;99.90;;;;;;5052010;28;20621;-65
2021/01/21 09:53:22;;;;;;;23.83;12.37;;;4.60;99.90;;;;;;5051670;28;20667;-65
2021/01/21 09:55:55;;;;;;;22.30;14.03;;;4.70;99.90;;;;;;5051921;28;20226;-64
2021/01/21 09:58:21;;;;;;;23.17;12.43;;;4.60;99.90;;;;;;5052263;28;20699;-67
2021/01/21 10:00:48;;;;;;;20.87;12.67;;;4.70;99.90;;;;;;5051673;28;20246;-66
2021/01/21 10:03:14;;;;;;;21.60;12.87;;;4.60;99.90;;;;;;5051623;28;20304;-65
2021/01/21 10:05:41;;;;;;;20.00;11.67;;;4.60;99.90;;;;;;5051941;28;20278;-67
2021/01/21 10:08:07;;;;;;;20.10;12.50;;;4.60;99.90;;;;;;5052184;28;20281;-65
2021/01/21 10:10:33;;;;;;;22.10;12.50;;;4.60;99.90;;;;;;5055211;28;20191;-66
2021/01/21 10:13:01;;;;;;;22.33;12.27;;;4.60;99.90;;;;;;5055238;28;20711;-65
2021/01/21 10:15:27;;;;;;;22.90;11.67;;;4.60;99.90;;;;;;5054799;28;20207;-63
2021/01/21 10:17:54;;;;;;;20.13;11.40;;;4.70;99.90;;;;;;5055532;28;20302;-65
2021/01/21 10:20:20;;;;;;;21.90;11.37;;;4.70;99.90;;;;;;5054602;28;20227;-65
2021/01/21 10:22:47;;;;;;;21.23;10.50;;;4.70;99.90;;;;;;5055613;28;20224;-64
2021/01/21 10:25:14;;;;;;;19.70;10.77;;;4.70;99.90;;;;;;5055489;28;20552;-65
2021/01/21 10:27:40;;;;;;;18.20;10.33;;;4.70;99.90;;;;;;5054993;28;20226;-66
2021/01/21 10:30:09;;;;;;;23.07;10.37;;;4.70;99.90;;;;;;5056529;28;20241;-66
2021/01/21 10:32:36;;;;;;;16.80;10.03;;;4.70;99.90;;;;;;5055444;28;20242;-66
2021/01/21 10:35:03;;;;;;;17.47;8.80;;;4.70;99.90;;;;;;5055009;28;20285;-67
2021/01/21 10:37:29;;;;;;;18.07;9.50;;;4.70;99.90;;;;;;5054697;28;20669;-66
2021/01/21 10:39:56;;;;;;;18.47;9.37;;;4.80;99.90;;;;;;5055586;28;20601;-65
2021/01/21 10:42:23;;;;;;;17.33;7.97;;;4.80;99.90;;;;;;5050011;28;20213;-65
2021/01/21 10:44:49;;;;;;;18.80;8.00;;;4.80;99.90;;;;;;5054631;28;20203;-69
2021/01/21 10:47:16;;;;;;;22.70;9.07;;;4.80;99.90;;;;;;5054602;28;20190;-67
2021/01/21 10:49:43;;;;;;;22.90;9.50;;;4.80;99.90;;;;;;5054569;28;20282;-66
2021/01/21 10:52:09;;;;;;;19.83;8.20;;;4.80;99.90;;;;;;5054269;28;20661;-68
2021/01/21 10:54:36;;;;;;;21.40;9.30;;;4.90;99.90;;;;;;5055762;28;20211;-67
2021/01/21 10:57:03;;;;;;;18.17;8.30;;;4.90;99.90;;;;;;5055359;28;20221;-65
2021/01/21 10:59:29;;;;;;;24.27;8.60;;;4.90;99.90;;;;;;5052980;28;20243;-66
2021/01/21 11:01:56;;;;;;;19.97;8.43;;;4.90;99.90;;;;;;5054417;28;20192;-69
2021/01/21 11:04:23;;;;;;;23.40;8.73;;;4.90;99.90;;;;;;5055263;28;20261;-66
2021/01/21 11:06:50;;;;;;;21.93;8.33;;;4.90;99.90;;;;;;5054786;28;20192;-65
2021/01/21 11:09:17;;;;;;;21.00;8.73;;;5.00;99.90;;;;;;5052632;28;20184;-67
2021/01/21 11:11:44;;;;;;;20.53;8.70;;;5.00;99.90;;;;;;5054139;28;20192;-65
2021/01/21 11:14:10;;;;;;;22.40;8.73;;;5.00;99.90;;;;;;5053038;28;20570;-63
2021/01/21 11:16:37;;;;;;;22.13;8.43;;;5.00;99.90;;;;;;5046428;28;20189;-66
2021/01/21 11:19:03;;;;;;;21.37;9.30;;;5.00;99.90;;;;;;5053598;28;20294;-66
2021/01/21 11:21:31;;;;;;;19.77;8.40;;;5.10;99.90;;;;;;5053051;28;20196;-64
2021/01/21 11:23:57;;;;;;;19.97;8.13;;;5.10;99.90;;;;;;5052657;28;20208;-65
2021/01/21 11:26:23;;;;;;;20.60;8.23;;;5.10;99.90;;;;;;5053877;28;20238;-66
2021/01/21 11:28:50;;;;;;;22.77;8.23;;;5.20;99.90;;;;;;5054180;28;20643;-64
2021/01/21 11:31:16;;;;;;;30.83;9.53;;;5.20;99.90;;;;;;5054205;28;20195;-66
2021/01/21 11:33:44;;;;;;;20.73;8.47;;;5.20;99.90;;;;;;5053806;28;20187;-67
2021/01/21 11:36:10;;;;;;;23.73;9.10;;;5.20;99.90;;;;;;5054188;28;20198;-66
2021/01/21 11:38:38;;;;;;;22.63;9.20;;;5.20;99.90;;;;;;5054115;28;20261;-66
2021/01/21 11:41:04;;;;;;;18.70;8.43;;;5.20;99.90;;;;;;5053420;28;20253;-64
2021/01/21 11:43:31;;;;;;;17.80;8.23;;;5.20;99.90;;;;;;5053165;28;20263;-66
2021/01/21 11:45:58;;;;;;;17.33;8.30;;;5.20;99.90;;;;;;5049883;28;20214;-68
2021/01/21 11:48:24;;;;;;;18.80;8.10;;;5.20;99.90;;;;;;5054150;28;20248;-65
2021/01/21 11:50:51;;;;;;;20.73;7.93;;;5.20;99.90;;;;;;5053658;28;20226;-63
2021/01/21 11:53:17;;;;;;;19.20;7.23;;;5.20;99.90;;;;;;5053767;28;20188;-65
2021/01/21 11:55:44;;;;;;;19.40;7.70;;;5.10;99.90;;;;;;5052987;28;20192;-64
2021/01/21 11:58:11;;;;;;;17.83;8.30;;;5.20;99.90;;;;;;5053499;28;20306;-64
2021/01/21 12:00:37;;;;;;;17.47;7.73;;;5.10;99.90;;;;;;5053182;28;20270;-64
2021/01/21 12:03:04;;;;;;;21.20;8.63;;;5.10;99.90;;;;;;5051870;28;20235;-65
2021/01/21 12:05:30;;;;;;;19.93;7.37;;;5.20;99.90;;;;;;5053825;28;20226;-64
2021/01/21 12:07:57;;;;;;;15.77;8.10;;;5.20;99.90;;;;;;5052597;28;20265;-63
2021/01/21 12:10:23;;;;;;;18.17;6.90;;;5.20;99.90;;;;;;5053025;28;20526;-67
2021/01/21 12:12:51;;;;;;;15.50;7.33;;;5.20;99.90;;;;;;5050978;28;20303;-68
2021/01/21 12:15:17;;;;;;;20.63;7.30;;;5.20;99.90;;;;;;5052299;28;20241;-66
2021/01/21 12:17:44;;;;;;;19.20;7.57;;;5.10;99.90;;;;;;5051517;28;20187;-66
2021/01/21 12:20:11;;;;;;;22.27;7.67;;;5.10;99.90;;;;;;5052754;28;20188;-66
2021/01/21 12:22:38;;;;;;;16.07;7.20;;;5.10;99.90;;;;;;5052881;28;20278;-66
2021/01/21 12:25:05;;;;;;;16.10;7.17;;;5.00;99.90;;;;;;5053128;28;20188;-65
2021/01/21 12:27:31;;;;;;;18.63;8.10;;;5.00;99.90;;;;;;5052496;28;20199;-65
2021/01/21 12:29:59;;;;;;;17.27;7.93;;;5.00;99.90;;;;;;5052512;28;20239;-66
2021/01/21 12:32:25;;;;;;;16.30;7.43;;;5.00;99.90;;;;;;5052501;28;20234;-65
2021/01/21 12:34:52;;;;;;;15.23;6.50;;;5.00;99.90;;;;;;5053168;28;20657;-65
2021/01/21 12:37:18;;;;;;;18.80;8.37;;;5.00;99.90;;;;;;5052739;28;20187;-67
2021/01/21 12:39:45;;;;;;;15.70;7.43;;;5.00;99.90;;;;;;5052484;28;20348;-65
2021/01/21 12:42:12;;;;;;;21.57;8.77;;;5.00;99.90;;;;;;5047520;28;20224;-65
2021/01/21 12:44:40;;;;;;;15.37;7.50;;;5.00;99.90;;;;;;5052322;28;20271;-65
2021/01/21 12:47:07;;;;;;;19.93;8.37;;;5.00;99.90;;;;;;5051600;28;20567;-67
2021/01/21 12:49:34;;;;;;;20.00;7.90;;;5.00;99.90;;;;;;5048670;28;20238;-67
2021/01/21 12:52:00;;;;;;;23.60;8.30;;;5.00;99.90;;;;;;5052570;28;20285;-66